createdAt,value
2018-12-29T00:01:31.925Z,0.10
2018-12-29T00:04:02.121Z,0.10
2018-12-29T00:06:31.729Z,0.20
2018-12-29T00:09:02.271Z,0.10
2018-12-29T00:11:35.232Z,0.00
2018-12-29T00:14:05.356Z,0.00
2018-12-29T00:16:35.069Z,-0.10
2018-12-29T00:19:04.905Z,0.00
2018-12-29T00:21:34.662Z,0.00
2018-12-29T00:24:04.323Z,0.10
2018-12-29T00:26:34.616Z,0.10
2018-12-29T00:29:04.665Z,0.20
2018-12-29T00:31:34.209Z,0.20
2018-12-29T00:34:03.736Z,0.10
2018-12-29T00:36:33.919Z,0.20
2018-12-29T00:39:04.063Z,0.10
2018-12-29T00:41:33.924Z,0.10
2018-12-29T00:44:03.655Z,0.00
2018-12-29T00:46:32.990Z,0.20
2018-12-29T00:49:03.248Z,0.10
2018-12-29T00:51:33.211Z,0.20
2018-12-29T00:54:03.067Z,0.30
2018-12-29T00:56:37.905Z,0.30
2018-12-29T00:59:07.862Z,0.20
2018-12-29T01:01:38.051Z,0.10
2018-12-29T01:04:08.237Z,0.10
2018-12-29T01:06:39.888Z,0.10
2018-12-29T01:09:09.883Z,0.20
2018-12-29T01:11:40.373Z,0.30
2018-12-29T01:14:10.386Z,0.20
2018-12-29T01:16:40.690Z,0.30
2018-12-29T01:19:10.734Z,0.30
2018-12-29T01:21:40.582Z,0.30
2018-12-29T01:24:10.002Z,0.40
2018-12-29T01:26:44.068Z,0.40
2018-12-29T01:29:13.983Z,0.30
2018-12-29T01:31:45.848Z,0.30
2018-12-29T01:34:15.867Z,0.30
2018-12-29T01:36:45.716Z,0.30
2018-12-29T01:39:18.095Z,0.30
2018-12-29T01:41:47.764Z,0.30
2018-12-29T01:44:17.271Z,0.30
2018-12-29T01:46:46.986Z,0.20
2018-12-29T01:49:16.911Z,0.20
2018-12-29T01:51:46.790Z,0.30
2018-12-29T01:54:16.723Z,0.30
2018-12-29T01:56:46.760Z,0.20
2018-12-29T01:59:17.194Z,0.20
2018-12-29T02:01:47.040Z,0.20
2018-12-29T02:04:16.701Z,0.20
2018-12-29T02:06:46.785Z,0.20
2018-12-29T02:09:17.031Z,0.20
2018-12-29T02:11:46.901Z,0.20
2018-12-29T02:14:16.816Z,0.10
2018-12-29T02:16:46.786Z,-0.10
2018-12-29T02:19:16.649Z,-0.10
2018-12-29T02:21:46.215Z,0.00
2018-12-29T02:24:15.874Z,0.00
2018-12-29T02:26:46.420Z,0.10
2018-12-29T02:29:16.128Z,0.20
2018-12-29T02:31:45.955Z,0.10
2018-12-29T02:34:15.720Z,0.30
2018-12-29T02:36:45.234Z,0.20
2018-12-29T02:39:15.438Z,0.10
2018-12-29T02:41:45.403Z,0.10
2018-12-29T02:44:15.086Z,0.20
2018-12-29T02:46:45.153Z,0.10
2018-12-29T02:49:17.084Z,0.10
2018-12-29T02:51:46.942Z,0.20
2018-12-29T02:54:16.549Z,0.30
2018-12-29T02:56:46.494Z,0.30
2018-12-29T02:59:16.094Z,0.30
2018-12-29T03:01:46.555Z,0.30
2018-12-29T03:04:17.264Z,0.20
2018-12-29T03:06:50.267Z,0.20
2018-12-29T03:09:20.614Z,0.10
2018-12-29T03:11:50.430Z,0.10
2018-12-29T03:14:20.360Z,0.00
2018-12-29T03:16:50.374Z,0.10
2018-12-29T03:19:21.280Z,0.10
2018-12-29T03:21:50.963Z,0.00
2018-12-29T03:24:20.947Z,0.10
2018-12-29T03:26:50.345Z,0.00
2018-12-29T03:29:20.292Z,0.10
2018-12-29T03:31:50.279Z,0.10
2018-12-29T03:34:19.995Z,0.20
2018-12-29T03:36:50.451Z,0.20
2018-12-29T03:39:20.537Z,0.20
2018-12-29T03:41:50.550Z,0.20
2018-12-29T03:44:20.095Z,0.20
2018-12-29T03:46:49.778Z,0.10
2018-12-29T03:49:20.523Z,0.00
2018-12-29T03:51:50.274Z,0.00
2018-12-29T03:54:19.716Z,0.00
2018-12-29T03:56:49.430Z,0.10
2018-12-29T03:59:19.070Z,0.10
2018-12-29T04:01:48.705Z,0.10
2018-12-29T04:04:18.302Z,0.10
2018-12-29T04:06:48.997Z,-0.10
2018-12-29T04:09:35.086Z,-0.10
2018-12-29T04:12:28.357Z,-0.10
2018-12-29T04:14:58.025Z,-0.10
2018-12-29T04:17:27.767Z,-0.10
2018-12-29T04:19:58.435Z,-0.10
2018-12-29T04:22:28.375Z,-0.10
2018-12-29T04:24:58.116Z,0.00
2018-12-29T04:27:28.276Z,0.00
2018-12-29T04:29:58.653Z,-0.20
2018-12-29T04:32:29.659Z,-0.10
2018-12-29T04:34:59.165Z,-0.10
2018-12-29T04:37:29.809Z,-0.10
2018-12-29T04:40:00.471Z,-0.10
2018-12-29T04:42:30.445Z,-0.10
2018-12-29T04:45:00.991Z,-0.10
2018-12-29T04:47:31.382Z,0.00
2018-12-29T04:50:01.744Z,-0.10
2018-12-29T04:52:32.136Z,-0.10
2018-12-29T04:55:02.366Z,0.00
2018-12-29T04:57:32.709Z,-0.20
2018-12-29T05:00:02.682Z,-0.30
2018-12-29T05:02:33.156Z,-0.20
2018-12-29T05:05:03.360Z,-0.20
2018-12-29T05:07:33.061Z,-0.20
2018-12-29T05:10:02.421Z,-0.30
2018-12-29T05:12:32.126Z,-0.40
2018-12-29T05:15:01.542Z,-0.40
2018-12-29T05:17:31.868Z,-0.30
2018-12-29T05:20:01.894Z,-0.10
2018-12-29T05:22:35.282Z,-0.20
2018-12-29T05:25:05.000Z,-0.20
2018-12-29T05:27:34.716Z,-0.10
2018-12-29T05:30:07.781Z,0.00
2018-12-29T05:32:37.427Z,-0.10
2018-12-29T05:35:08.752Z,-0.30
2018-12-29T05:37:38.871Z,-0.20
2018-12-29T05:40:10.071Z,-0.20
2018-12-29T05:42:39.938Z,-0.20
2018-12-29T05:45:10.911Z,-0.20
2018-12-29T05:47:40.932Z,-0.30
2018-12-29T05:50:10.803Z,-0.30
2018-12-29T05:52:40.964Z,-0.40
2018-12-29T05:55:11.529Z,-0.30
2018-12-29T05:57:41.737Z,-0.10
2018-12-29T06:00:11.478Z,-0.10
2018-12-29T06:02:41.439Z,-0.10
2018-12-29T06:05:12.397Z,-0.30
2018-12-29T06:07:42.353Z,-0.30
2018-12-29T06:10:13.091Z,-0.20
2018-12-29T06:12:45.340Z,-0.10
2018-12-29T06:15:15.678Z,-0.10
2018-12-29T06:17:45.558Z,-0.30
2018-12-29T06:20:14.977Z,-0.10
2018-12-29T06:22:44.876Z,-0.30
2018-12-29T06:25:15.317Z,-0.30
2018-12-29T06:27:44.778Z,-0.30
2018-12-29T06:30:15.669Z,-0.30
2018-12-29T06:32:45.592Z,-0.10
2018-12-29T06:35:17.791Z,-0.10
2018-12-29T06:37:47.757Z,-0.10
2018-12-29T06:40:18.186Z,-0.20
2018-12-29T06:42:47.746Z,-0.10
2018-12-29T06:45:17.636Z,-0.10
2018-12-29T06:47:47.633Z,-0.20
2018-12-29T06:50:17.575Z,-0.10
2018-12-29T06:52:47.990Z,-0.10
2018-12-29T06:55:18.687Z,-0.10
2018-12-29T06:58:03.981Z,-0.10
2018-12-29T07:00:38.300Z,0.00
2018-12-29T07:03:08.999Z,0.10
2018-12-29T07:05:43.438Z,0.10
2018-12-29T07:08:19.897Z,0.10
2018-12-29T07:10:51.009Z,0.10
2018-12-29T07:13:26.362Z,0.10
2018-12-29T07:16:11.671Z,0.10
2018-12-29T07:18:42.906Z,0.10
2018-12-29T07:21:16.338Z,0.00
2018-12-29T07:23:49.034Z,0.00
2018-12-29T07:29:48.810Z,-0.10
2018-12-29T07:32:27.656Z,0.10
2018-12-29T07:34:57.620Z,0.10
2018-12-29T07:37:27.587Z,0.10
2018-12-29T07:39:57.594Z,0.10
2018-12-29T07:42:27.240Z,-0.20
2018-12-29T07:44:57.250Z,-0.30
2018-12-29T07:47:29.333Z,-0.10
2018-12-29T07:50:03.180Z,0.00
2018-12-29T07:52:35.608Z,0.00
2018-12-29T07:55:06.263Z,0.00
2018-12-29T07:57:38.277Z,0.00
2018-12-29T08:00:11.775Z,0.00
2018-12-29T08:02:42.480Z,0.00
2018-12-29T08:05:20.511Z,0.00
2018-12-29T08:07:57.983Z,0.10
2018-12-29T08:10:30.035Z,0.00
2018-12-29T08:13:05.462Z,0.10
2018-12-29T08:15:37.831Z,0.10
2018-12-29T08:18:08.435Z,0.20
2018-12-29T08:20:39.828Z,0.20
2018-12-29T08:23:10.827Z,0.30
2018-12-29T08:25:49.273Z,0.10
2018-12-29T08:28:20.307Z,0.20
2018-12-29T08:30:51.434Z,0.30
2018-12-29T08:37:52.037Z,0.30
2018-12-29T08:40:22.999Z,0.40
2018-12-29T08:42:53.697Z,0.40
2018-12-29T08:45:32.445Z,0.40
2018-12-29T08:53:29.374Z,0.40
2018-12-29T08:56:53.389Z,0.40
2018-12-29T09:00:01.746Z,0.50
2018-12-29T09:02:40.679Z,0.50
2018-12-29T09:05:20.455Z,0.50
2018-12-29T09:30:11.884Z,0.70
2018-12-29T09:33:39.363Z,0.70
2018-12-29T09:37:44.050Z,0.80
2018-12-29T09:47:34.062Z,0.80
2018-12-29T09:48:52.540Z,0.90
2018-12-29T09:54:52.346Z,0.90
2018-12-29T10:09:19.711Z,1.40
2018-12-29T10:10:58.666Z,1.10
2018-12-29T10:16:48.483Z,1.70
2018-12-29T10:51:24.069Z,2.60
2018-12-29T10:53:54.969Z,2.70
2018-12-29T10:56:36.867Z,2.70
2018-12-29T10:59:10.016Z,2.70
2018-12-29T11:01:39.857Z,2.60
2018-12-29T11:04:09.739Z,2.50
2018-12-29T11:06:40.002Z,2.60
2018-12-29T11:09:10.926Z,2.70
2018-12-29T11:11:42.480Z,2.70
2018-12-29T11:14:12.869Z,2.80
2018-12-29T11:16:44.690Z,2.80
2018-12-29T11:19:14.475Z,2.70
2018-12-29T11:21:44.560Z,2.70
2018-12-29T11:24:14.767Z,2.70
2018-12-29T11:26:44.499Z,2.70
2018-12-29T11:29:15.856Z,2.60
2018-12-29T11:31:47.562Z,2.60
2018-12-29T11:34:17.859Z,2.50
2018-12-29T11:36:47.543Z,2.50
2018-12-29T11:39:17.850Z,2.50
2018-12-29T11:41:47.839Z,2.70
2018-12-29T11:44:19.124Z,2.70
2018-12-29T11:46:49.025Z,2.80
2018-12-29T11:49:19.617Z,2.80
2018-12-29T11:51:50.116Z,2.80
2018-12-29T11:54:22.979Z,2.90
2018-12-29T11:56:53.318Z,2.80
2018-12-29T11:59:28.256Z,2.70
2018-12-29T12:01:58.179Z,2.70
2018-12-29T12:04:27.735Z,2.60
2018-12-29T12:06:57.715Z,2.60
2018-12-29T12:09:27.448Z,2.70
2018-12-29T12:11:58.683Z,2.70
2018-12-29T12:14:28.512Z,2.80
2018-12-29T12:16:58.206Z,2.80
2018-12-29T12:19:28.409Z,2.80
2018-12-29T12:21:58.119Z,2.70
2018-12-29T12:24:28.850Z,2.70
2018-12-29T12:26:58.804Z,2.80
2018-12-29T12:29:32.725Z,2.80
2018-12-29T12:32:05.327Z,2.80
2018-12-29T12:34:51.058Z,2.70
2018-12-29T12:37:28.949Z,2.70
2018-12-29T12:40:08.811Z,2.70
2018-12-29T12:42:39.654Z,2.80
2018-12-29T12:45:44.449Z,2.80
2018-12-29T12:49:00.056Z,2.80
2018-12-29T12:52:08.010Z,2.80
2018-12-29T12:54:56.784Z,2.70
2018-12-29T12:57:29.658Z,2.60
2018-12-29T13:00:11.849Z,2.70
2018-12-29T13:02:42.233Z,2.60
2018-12-29T13:05:13.409Z,2.60
2018-12-29T13:07:43.246Z,2.60
2018-12-29T13:10:30.354Z,2.60
2018-12-29T13:13:01.333Z,2.60
2018-12-29T13:15:32.449Z,2.60
2018-12-29T13:18:12.629Z,2.60
2018-12-29T13:20:53.068Z,2.70
2018-12-29T13:23:27.767Z,2.60
2018-12-29T13:25:59.057Z,2.70
2018-12-29T13:28:29.681Z,2.70
2018-12-29T13:31:06.570Z,2.70
2018-12-29T13:33:37.826Z,2.70
2018-12-29T13:36:43.538Z,2.70
2018-12-29T13:39:14.568Z,2.70
2018-12-29T13:41:46.553Z,2.60
2018-12-29T13:44:50.099Z,2.60
2018-12-29T13:47:31.851Z,2.60
2018-12-29T13:50:14.410Z,2.70
2018-12-29T13:54:02.645Z,2.70
2018-12-29T13:56:19.034Z,2.80
2018-12-29T13:58:52.514Z,2.80
2018-12-29T14:01:25.829Z,2.80
2018-12-29T14:03:58.810Z,2.80
2018-12-29T14:06:37.335Z,2.80
2018-12-29T14:09:08.516Z,2.80
2018-12-29T14:11:56.989Z,2.90
2018-12-29T14:14:27.313Z,2.90
2018-12-29T17:10:18.763Z,2.20
2018-12-29T17:12:48.180Z,2.10
2018-12-29T17:15:17.867Z,2.10
2018-12-29T17:17:47.255Z,2.10
2018-12-29T17:20:17.095Z,2.00
2018-12-29T17:22:47.760Z,2.00
2018-12-29T17:25:17.683Z,2.00
2018-12-29T17:27:47.463Z,2.00
2018-12-29T17:30:18.360Z,2.00
2018-12-29T17:32:48.635Z,1.90
2018-12-29T17:35:19.636Z,1.90
2018-12-29T17:37:50.314Z,2.00
2018-12-29T17:40:20.644Z,1.90
2018-12-29T17:42:52.106Z,2.00
2018-12-29T17:45:22.283Z,2.00
2018-12-29T17:47:52.018Z,2.00
2018-12-29T17:50:22.920Z,2.00
2018-12-29T17:52:52.860Z,2.00
2018-12-29T18:03:11.409Z,2.00
2018-12-29T18:06:16.061Z,2.00
2018-12-29T18:09:38.137Z,2.00
2018-12-29T18:12:23.487Z,2.00
2018-12-29T18:14:57.457Z,2.00
2018-12-29T18:17:27.089Z,2.00
2018-12-29T18:19:57.287Z,2.00
2018-12-29T18:22:28.900Z,2.00
2018-12-29T18:25:00.367Z,2.00
2018-12-29T18:27:30.349Z,2.00
2018-12-29T18:30:00.793Z,2.00
2018-12-29T18:32:30.981Z,2.00
2018-12-29T18:35:01.421Z,2.00
2018-12-29T18:37:31.669Z,2.00
2018-12-29T18:40:07.660Z,2.00
2018-12-29T18:42:43.935Z,2.00
2018-12-29T18:45:34.843Z,2.00
2018-12-29T18:48:05.461Z,2.00
2018-12-29T18:50:35.653Z,2.00
2018-12-29T18:53:07.383Z,2.00
2018-12-29T18:55:40.533Z,2.00
2018-12-29T18:58:38.259Z,2.00
2018-12-29T19:04:08.127Z,2.00
2018-12-29T19:07:04.917Z,2.10
2018-12-29T19:09:41.403Z,2.10
2018-12-29T19:12:26.946Z,2.10
2018-12-29T19:14:58.351Z,2.10
2018-12-29T19:21:41.982Z,2.10
2018-12-29T19:23:42.465Z,2.10
2018-12-29T19:26:18.829Z,2.10
2018-12-29T19:28:57.946Z,2.10
2018-12-29T19:31:29.047Z,2.10
2018-12-29T19:34:05.867Z,2.10
2018-12-29T19:36:36.367Z,2.10
2018-12-29T19:40:10.841Z,2.20
2018-12-29T19:42:26.115Z,2.20
2018-12-29T19:45:26.899Z,2.20
2018-12-29T19:48:22.724Z,2.20
2018-12-29T19:51:08.343Z,2.20
2018-12-29T19:53:48.155Z,2.20
2018-12-29T19:56:27.959Z,2.20
2018-12-29T19:59:00.054Z,2.20
2018-12-29T20:02:11.426Z,2.20
2018-12-29T20:05:00.327Z,2.20
2018-12-29T20:07:48.030Z,2.10
2018-12-29T20:10:48.480Z,2.10
2018-12-29T20:13:50.712Z,2.10
2018-12-29T20:16:21.087Z,2.10
2018-12-29T20:18:59.012Z,2.10
2018-12-29T20:21:29.551Z,2.10
2018-12-29T20:24:01.464Z,2.10
2018-12-29T20:26:36.119Z,2.10
2018-12-29T20:29:09.268Z,2.10
2018-12-29T20:31:39.010Z,2.10
2018-12-29T20:34:21.424Z,2.10
2018-12-29T20:36:57.160Z,2.00
2018-12-29T20:39:41.016Z,2.00
2018-12-29T20:42:27.412Z,1.90
2018-12-29T20:45:00.164Z,2.00
2018-12-29T20:47:51.288Z,2.00
2018-12-29T20:53:21.095Z,1.90
2018-12-29T20:55:52.708Z,1.80
2018-12-29T20:58:25.027Z,1.90
2018-12-29T21:00:58.204Z,1.80
2018-12-29T21:03:45.894Z,1.80
2018-12-29T21:06:16.781Z,1.80
2018-12-29T21:09:02.328Z,1.80
2018-12-29T21:11:37.669Z,1.80
2018-12-29T21:17:22.556Z,1.80
2018-12-29T21:19:52.777Z,1.80
2018-12-29T21:22:22.897Z,1.80
2018-12-29T21:24:56.100Z,1.90
2018-12-29T21:27:26.095Z,1.90
2018-12-29T21:29:57.676Z,1.90
2018-12-29T21:32:29.300Z,2.00
2018-12-29T21:35:06.858Z,2.00
2018-12-29T21:37:40.607Z,2.00
2018-12-29T21:40:12.772Z,2.10
2018-12-29T21:42:45.181Z,2.10
2018-12-29T21:45:15.999Z,2.10
2018-12-29T21:47:47.429Z,2.10
2018-12-29T21:50:25.301Z,2.10
2018-12-29T21:52:52.370Z,2.10
2018-12-29T21:55:22.355Z,2.10
2018-12-29T21:57:53.094Z,2.10
2018-12-29T22:00:23.244Z,2.10
2018-12-29T22:02:54.650Z,2.10
2018-12-29T22:05:24.978Z,2.10
2018-12-29T22:07:54.694Z,2.10
2018-12-29T22:10:25.280Z,2.10
2018-12-29T22:12:55.294Z,2.10
2018-12-29T22:15:25.474Z,2.10
2018-12-29T22:17:56.019Z,2.10
2018-12-29T22:20:33.199Z,2.10
2018-12-29T22:22:58.660Z,2.20
2018-12-29T22:25:28.295Z,2.20
2018-12-29T22:27:57.834Z,2.20
2018-12-29T22:30:28.159Z,2.30
2018-12-29T22:32:58.229Z,2.40
2018-12-29T22:35:28.964Z,2.50
2018-12-29T22:37:59.478Z,2.60
2018-12-29T22:40:30.607Z,2.60
2018-12-29T22:43:00.513Z,2.70
2018-12-29T22:45:31.002Z,2.80
2018-12-29T22:48:00.946Z,2.80
2018-12-29T22:50:30.822Z,2.90
2018-12-29T22:53:00.944Z,2.80
2018-12-29T22:55:30.821Z,2.90
2018-12-29T22:58:08.358Z,2.90
2018-12-29T23:00:41.077Z,2.90
2018-12-29T23:03:11.341Z,2.90
2018-12-29T23:05:40.885Z,2.90
2018-12-29T23:08:11.216Z,3.00
2018-12-29T23:10:41.085Z,3.00
2018-12-29T23:13:10.778Z,3.00
2018-12-29T23:15:41.143Z,3.00
2018-12-29T23:18:11.246Z,3.00
2018-12-29T23:20:48.918Z,3.00
2018-12-29T23:23:13.209Z,3.00
2018-12-29T23:25:43.018Z,3.00
2018-12-29T23:28:12.681Z,3.00
2018-12-29T23:30:42.257Z,3.10
2018-12-29T23:33:12.163Z,3.10
2018-12-29T23:35:42.220Z,3.10
2018-12-29T23:38:12.066Z,3.10
2018-12-29T23:40:42.816Z,3.10
2018-12-29T23:43:12.343Z,3.10
2018-12-29T23:45:42.194Z,3.10
2018-12-29T23:48:13.107Z,3.10
2018-12-29T23:50:43.148Z,3.10
2018-12-29T23:53:13.513Z,3.10
2018-12-29T23:55:43.498Z,3.20
2018-12-29T23:58:13.135Z,3.10
